• Join FlightAware (Why Join?)
  • Login
  • US Flag 
05:10AM EST


 

Airport Tracker/Info


-or-


 

Live Flight TrackerFlight Track Log ✈ ISA506 ✈ 23-May-2013 ✈ KACK - KHYA

Flight Track Log - Related Links

Times and Time Zones

All times are in EDT time to prevent confusion due to time zone crossing. See the ISA506 flight status page for this flight to view local times or setup timezone preferences in your user account.

Time Position Orientation Groundspeed Altitude Reporting Facility
EDT Latitude Longitude Course Direction KTS MPH feet Rate Location/Type
10:50AM 41.4486 -70.1558 336° Northwest  Level FlightAware Approximate
10:51AM 41.4812 -70.1750 337° Northwest  Level FlightAware Approximate
10:52AM 41.5140 -70.1937 337° Northwest  Level FlightAware Approximate
10:53AM 41.5468 -70.2124 337° Northwest  Level FlightAware Approximate
10:54AM 41.5796 -70.2312 337° Northwest  Level FlightAware Approximate
10:55AM 41.6136 -70.2454 343° North  Level FlightAware Approximate
10:56AM 41.6478 -70.2591 343° North  Level FlightAware Approximate
10:57AM 41.6667 -70.2667 343° North  Level FlightAware Approximate
10:58AM 41.6693 -70.2804 343° North  Level Estimated
10:59AM 41.6693 -70.2804 343° North  Level Estimated
11:00AM 41.6693 -70.2804 343° North  Level Estimated
11:01AM 41.6693 -70.2804 343° North  Level Estimated
11:02AM 41.6693 -70.2804 343° North  Level Estimated
11:03AM 41.6693 -70.2804 343° North  Level Estimated
11:04AM 41.6693 -70.2804 343° North  Level Estimated
11:05AM 41.6693 -70.2804 343° North  Level Estimated
11:06AM 41.6693 -70.2804 343° North  Level Estimated
11:07AM 41.6693 -70.2804 343° North  Level Estimated
11:08AM 41.6693 -70.2804 343° North  Level Estimated
11:09AM 41.6693 -70.2804 343° North  Level Estimated
11:10AM 41.6693 -70.2804 343° North  Level Estimated